Time;durP1;ratioP1;P1;durP2;ratioP2;P2;SDS_P1;SDS_P2;PMS_P1;PMS_P2;Temp;Humidity;BMP_temperature;BMP_pressure;BME280_temperature;BME280_humidity;BME280_pressure;Samples;Min_cycle;Max_cycle;Signal;HPM_P1;HPM_P2
2023/04/19 00:04:03;;;;;;;;;;;;;;;8.85;70.42578;102974;;;;-70
2023/04/19 00:09:05;;;;;;;;;;;;;;;8.86;70.48242;102968.7;;;;-68
2023/04/19 00:09:19;;;;;;;11.5;6.1;;;;;;;;;;;;;-70
2023/04/19 00:14:05;;;;;;;;;;;;;;;8.84;70.6123;102965.4;;;;-69
2023/04/19 00:19:03;;;;;;;;;;;;;;;8.8;70.78125;102968.7;;;;-69
2023/04/19 00:24:05;;;;;;;;;;;;;;;8.81;70.91699;102961.8;;;;-69
2023/04/19 00:29:03;;;;;;;;;;;;;;;8.77;71.0752;102958.9;;;;-70
2023/04/19 00:34:03;;;;;;;;;;;;;;;8.73;71.1582;102956.6;;;;-68
2023/04/19 00:39:03;;;;;;;;;;;;;;;8.71;71.05566;102962.6;;;;-70
2023/04/19 00:39:20;;;;;;;13.4;6.5;;;;;;;;;;;;;-70
2023/04/19 00:44:06;;;;;;;;;;;;;;;8.69;71.06152;102962.1;;;;-69
2023/04/19 00:49:05;;;;;;;;;;;;;;;8.68;71.26074;102956.2;;;;-70
2023/04/19 00:54:07;;;;;;;;;;;;;;;8.64;71.33105;102953.8;;;;-70
2023/04/19 00:59:03;;;;;;;;;;;;;;;8.61;71.69043;102955.9;;;;-70
2023/04/19 01:04:06;;;;;;;;;;;;;;;8.59;71.87402;102945.3;;;;-70
2023/04/19 01:09:03;;;;;;;;;;;;;;;8.58;71.91797;102944.1;;;;-70
2023/04/19 01:09:21;;;;;;;13.2;7.2;;;;;;;;;;;;;-70
2023/04/19 01:14:03;;;;;;;;;;;;;;;8.57;72.11328;102948.3;;;;-70
2023/04/19 01:19:03;;;;;;;;;;;;;;;8.56;72.12305;102949.7;;;;-71
2023/04/19 01:24:03;;;;;;;;;;;;;;;8.51;72.12695;102944.4;;;;-69
2023/04/19 01:29:03;;;;;;;;;;;;;;;8.48;72.46484;102944.9;;;;-69
2023/04/19 01:34:03;;;;;;;;;;;;;;;8.47;72.34961;102939.1;;;;-70
2023/04/19 01:39:04;;;;;;;;;;;;;;;8.46;72.42676;102936.1;;;;-69
2023/04/19 01:39:22;;;;;;;14.3;7.4;;;;;;;;;;;;;-69
2023/04/19 01:44:03;;;;;;;;;;;;;;;8.47;72.50488;102934.1;;;;-70
2023/04/19 01:49:03;;;;;;;;;;;;;;;8.51;72.53516;102938.5;;;;-70
2023/04/19 01:54:03;;;;;;;;;;;;;;;8.54;72.71582;102939.5;;;;-70
2023/04/19 01:59:04;;;;;;;;;;;;;;;8.56;72.71875;102939.1;;;;-69
2023/04/19 02:04:04;;;;;;;;;;;;;;;8.57;72.54297;102938.3;;;;-71
2023/04/19 02:09:07;;;;;;;;;;;;;;;8.59;73.25391;102936.1;;;;-70
2023/04/19 02:09:23;;;;;;;13.7;7.1;;;;;;;;;;;;;-68
2023/04/19 02:14:03;;;;;;;;;;;;;;;8.61;73.12598;102934.4;;;;-69
2023/04/19 02:19:03;;;;;;;;;;;;;;;8.61;73.50098;102930.7;;;;-71
2023/04/19 02:24:03;;;;;;;;;;;;;;;8.64;73.84766;102933.1;;;;-70
2023/04/19 02:29:03;;;;;;;;;;;;;;;8.67;74.04004;102939;;;;-69
2023/04/19 02:34:03;;;;;;;;;;;;;;;8.68;73.64551;102942.6;;;;-68
2023/04/19 02:39:05;;;;;;;;;;;;;;;8.69;73.94434;102936.5;;;;-70
2023/04/19 02:39:25;;;;;;;16.9;8.1;;;;;;;;;;;;;-69
2023/04/19 02:44:04;;;;;;;;;;;;;;;8.71;73.66016;102940.3;;;;-70
2023/04/19 02:49:03;;;;;;;;;;;;;;;8.75;73.37891;102943.3;;;;-70
2023/04/19 02:54:03;;;;;;;;;;;;;;;8.77;74.2334;102947.7;;;;-69
2023/04/19 02:59:03;;;;;;;;;;;;;;;8.79;74.19238;102948.3;;;;-70
2023/04/19 03:04:03;;;;;;;;;;;;;;;8.81;74.57227;102949.6;;;;-71
2023/04/19 03:09:03;;;;;;;;;;;;;;;8.83;74.58691;102953;;;;-69
2023/04/19 03:09:26;;;;;;;15.2;7.9;;;;;;;;;;;;;-71
2023/04/19 03:14:03;;;;;;;;;;;;;;;8.86;74.87891;102954.6;;;;-70
2023/04/19 03:19:03;;;;;;;;;;;;;;;8.88;74.1748;102953.6;;;;-71
2023/04/19 03:24:06;;;;;;;;;;;;;;;8.86;74.66895;102950.5;;;;-70
2023/04/19 03:29:05;;;;;;;;;;;;;;;8.88;74.19922;102945;;;;-69
2023/04/19 03:34:03;;;;;;;;;;;;;;;8.85;74.75684;102944;;;;-69
2023/04/19 03:39:05;;;;;;;;;;;;;;;8.86;74.74609;102932.6;;;;-70
2023/04/19 03:39:27;;;;;;;13.7;6.7;;;;;;;;;;;;;-69
2023/04/19 03:44:03;;;;;;;;;;;;;;;8.85;74.61328;102935.6;;;;-69
2023/04/19 03:49:04;;;;;;;;;;;;;;;8.86;74.64648;102941.1;;;;-68
2023/04/19 03:54:03;;;;;;;;;;;;;;;8.87;74.60449;102940.3;;;;-69
2023/04/19 03:59:04;;;;;;;;;;;;;;;8.88;74.71582;102940.6;;;;-70
2023/04/19 04:04:07;;;;;;;;;;;;;;;8.88;74.60547;102945;;;;-69
2023/04/19 04:09:03;;;;;;;;;;;;;;;8.84;74.48926;102933.5;;;;-69
2023/04/19 04:09:30;;;;;;;12.4;6.1;;;;;;;;;;;;;-69
2023/04/19 04:14:03;;;;;;;;;;;;;;;8.8;74.61426;102934.9;;;;-70
2023/04/19 04:19:03;;;;;;;;;;;;;;;8.74;74.25098;102933.2;;;;-70
2023/04/19 04:24:04;;;;;;;;;;;;;;;8.66;74.11621;102936.1;;;;-69
2023/04/19 04:29:04;;;;;;;;;;;;;;;8.61;74.18555;102931.7;;;;-71
2023/04/19 04:34:03;;;;;;;;;;;;;;;8.56;74.01074;102934.3;;;;-69
2023/04/19 04:39:05;;;;;;;;;;;;;;;8.52;74.26758;102938.1;;;;-68
2023/04/19 04:39:29;;;;;;;11.6;5.6;;;;;;;;;;;;;-69
2023/04/19 04:44:03;;;;;;;;;;;;;;;8.47;74.20605;102939.1;;;;-69
2023/04/19 04:49:03;;;;;;;;;;;;;;;8.45;74.01563;102938.4;;;;-70
2023/04/19 04:54:04;;;;;;;;;;;;;;;8.4;74.16113;102948.7;;;;-71
2023/04/19 04:59:06;;;;;;;;;;;;;;;8.39;74.02539;102943.1;;;;-70
2023/04/19 05:04:05;;;;;;;;;;;;;;;8.35;74.06348;102949.4;;;;-69
2023/04/19 05:09:03;;;;;;;;;;;;;;;8.32;73.91309;102955.8;;;;-68
2023/04/19 05:09:31;;;;;;;11.2;5.5;;;;;;;;;;;;;-70
2023/04/19 05:14:03;;;;;;;;;;;;;;;8.3;73.54785;102960.8;;;;-70
2023/04/19 05:19:09;;;;;;;;;;;;;;;8.26;73.60645;102958.4;;;;-70
2023/04/19 05:24:03;;;;;;;;;;;;;;;8.24;73.4707;102961.8;;;;-69
2023/04/19 05:29:03;;;;;;;;;;;;;;;8.21;73.14551;102958.2;;;;-70
2023/04/19 05:34:06;;;;;;;;;;;;;;;8.2;73.0459;102957.6;;;;-70
2023/04/19 05:39:03;;;;;;;;;;;;;;;8.19;72.80078;102962.5;;;;-68
2023/04/19 05:39:32;;;;;;;11.4;5.3;;;;;;;;;;;;;-69
2023/04/19 05:44:03;;;;;;;;;;;;;;;8.2;72.6709;102970.9;;;;-68
2023/04/19 05:49:03;;;;;;;;;;;;;;;8.33;72.57227;102974.6;;;;-70
2023/04/19 05:54:03;;;;;;;;;;;;;;;8.66;71.58789;102972.1;;;;-69
2023/04/19 05:59:03;;;;;;;;;;;;;;;8.88;70.44238;102980.3;;;;-69
2023/04/19 06:04:03;;;;;;;;;;;;;;;9.25;69.62695;102976.9;;;;-70
2023/04/19 06:09:03;;;;;;;;;;;;;;;9.63;68.38086;102980;;;;-71
2023/04/19 06:09:31;;;;;;;10;5.2;;;;;;;;;;;;;-70
2023/04/19 06:14:04;;;;;;;;;;;;;;;9.94;67.38574;102989.1;;;;-71
2023/04/19 06:19:03;;;;;;;;;;;;;;;10.04;66.85742;102987.1;;;;-70
2023/04/19 06:24:03;;;;;;;;;;;;;;;10.17;66.41113;102990;;;;-71
2023/04/19 06:29:03;;;;;;;;;;;;;;;10.31;65.66699;102985.5;;;;-71
2023/04/19 06:34:04;;;;;;;;;;;;;;;10.42;65.35059;102999.9;;;;-69
2023/04/19 06:39:03;;;;;;;;;;;;;;;10.73;64.30859;102984.6;;;;-70
2023/04/19 06:39:32;;;;;;;8.5;4.8;;;;;;;;;;;;;-70
2023/04/19 06:44:04;;;;;;;;;;;;;;;10.91;63.94434;102984.1;;;;-69
2023/04/19 06:49:06;;;;;;;;;;;;;;;11.13;62.8623;102985.8;;;;-71
2023/04/19 06:54:03;;;;;;;;;;;;;;;11.17;62.91211;102985.9;;;;-69
2023/04/19 06:59:03;;;;;;;;;;;;;;;11.39;63.03418;102989.3;;;;-69
2023/04/19 07:04:03;;;;;;;;;;;;;;;11.54;62.53125;102988.2;;;;-69
2023/04/19 07:09:03;;;;;;;;;;;;;;;11.78;61.9082;102993.3;;;;-70
2023/04/19 07:09:34;;;;;;;9.9;4.4;;;;;;;;;;;;;-70
2023/04/19 07:14:03;;;;;;;;;;;;;;;11.8;60.5498;102999.5;;;;-69
2023/04/19 07:19:03;;;;;;;;;;;;;;;11.96;60.90625;103002.5;;;;-69
2023/04/19 07:24:05;;;;;;;;;;;;;;;12.23;60.70898;102996.9;;;;-70
2023/04/19 07:29:06;;;;;;;;;;;;;;;12.44;59.94531;102994.4;;;;-70
2023/04/19 07:34:03;;;;;;;;;;;;;;;12.44;59.71094;102989.9;;;;-69
2023/04/19 07:39:03;;;;;;;;;;;;;;;12.62;59.60156;102995.8;;;;-70
2023/04/19 07:39:35;;;;;;;6.9;3.8;;;;;;;;;;;;;-69
2023/04/19 07:44:03;;;;;;;;;;;;;;;12.94;58.58008;102984.5;;;;-71
2023/04/19 07:49:06;;;;;;;;;;;;;;;12.94;58.53613;102981;;;;-69
2023/04/19 07:54:03;;;;;;;;;;;;;;;13.4;57.39648;102981.5;;;;-71
2023/04/19 07:59:05;;;;;;;;;;;;;;;13.46;57.23633;102983;;;;-70
2023/04/19 08:04:03;;;;;;;;;;;;;;;13.79;56.60645;102987.2;;;;-69
2023/04/19 08:09:03;;;;;;;;;;;;;;;13.94;55.48145;102998.7;;;;-71
2023/04/19 08:09:37;;;;;;;6.1;3.4;;;;;;;;;;;;;-70
2023/04/19 08:14:03;;;;;;;;;;;;;;;14.06;55.28223;102993.8;;;;-71
2023/04/19 08:19:03;;;;;;;;;;;;;;;14.25;53.95605;103000.6;;;;-72
2023/04/19 08:24:03;;;;;;;;;;;;;;;14.31;54.43652;103003.6;;;;-70
2023/04/19 08:29:03;;;;;;;;;;;;;;;14.62;54.47461;103005.7;;;;-69
2023/04/19 08:34:03;;;;;;;;;;;;;;;14.7;53.2793;102994.5;;;;-70
2023/04/19 08:39:03;;;;;;;;;;;;;;;14.9;53.43945;102987.8;;;;-70
2023/04/19 08:39:39;;;;;;;4.2;2.6;;;;;;;;;;;;;-69
2023/04/19 08:44:05;;;;;;;;;;;;;;;15.17;52.86328;102982.7;;;;-72
2023/04/19 08:49:03;;;;;;;;;;;;;;;15.45;52.95313;102976.5;;;;-71
2023/04/19 08:54:04;;;;;;;;;;;;;;;15.8;52.13672;102976.6;;;;-70
2023/04/19 08:59:06;;;;;;;;;;;;;;;15.88;51.55957;102974.4;;;;-69
2023/04/19 09:04:06;;;;;;;;;;;;;;;15.97;50.90332;102973.1;;;;-70
2023/04/19 09:09:16;;;;;;;;;;;;;;;16.09;50.47559;102962.7;;;;-70
2023/04/19 09:09:47;;;;;;;4.5;2.4;;;;;;;;;;;;;-70
2023/04/19 09:14:10;;;;;;;;;;;;;;;16.25;50.62988;102964;;;;-72
2023/04/19 09:19:05;;;;;;;;;;;;;;;16.61;50.09473;102963.9;;;;-69
2023/04/19 09:24:03;;;;;;;;;;;;;;;16.76;48.92188;102966.8;;;;-70
2023/04/19 09:29:04;;;;;;;;;;;;;;;16.87;48.58301;102970.1;;;;-69
2023/04/19 09:34:13;;;;;;;;;;;;;;;17.01;48.00781;102958.3;;;;-70
2023/04/19 09:39:04;;;;;;;;;;;;;;;17.12;47.30664;102970.3;;;;-70
2023/04/19 09:39:44;;;;;;;4.4;2.1;;;;;;;;;;;;;-70
2023/04/19 09:44:14;;;;;;;;;;;;;;;17.23;46.7959;102968.1;;;;-69
2023/04/19 09:49:14;;;;;;;;;;;;;;;17.3;47.28027;102959.7;;;;-70
2023/04/19 09:54:06;;;;;;;;;;;;;;;17.47;46.45703;102958.8;;;;-69
2023/04/19 09:59:04;;;;;;;;;;;;;;;17.54;45.80566;102951.1;;;;-70
2023/04/19 10:04:03;;;;;;;;;;;;;;;17.71;47.42578;102938.4;;;;-70
2023/04/19 10:09:04;;;;;;;;;;;;;;;17.92;45.88086;102954.3;;;;-69
2023/04/19 10:09:47;;;;;;;3.3;1.8;;;;;;;;;;;;;-69
2023/04/19 10:14:04;;;;;;;;;;;;;;;17.97;45.5332;102941.1;;;;-70
2023/04/19 10:19:04;;;;;;;;;;;;;;;18.03;46.27832;102936.1;;;;-69
2023/04/19 10:24:06;;;;;;;;;;;;;;;18.32;43.61035;102930;;;;-69
2023/04/19 10:29:03;;;;;;;;;;;;;;;18.4;45.91895;102931.7;;;;-70
2023/04/19 10:34:03;;;;;;;;;;;;;;;18.46;45.26465;102923;;;;-70
2023/04/19 10:39:03;;;;;;;;;;;;;;;18.62;46.51074;102917.3;;;;-69
2023/04/19 10:39:49;;;;;;;3.9;1.5;;;;;;;;;;;;;-69
2023/04/19 10:44:16;;;;;;;;;;;;;;;18.92;45.9375;102926;;;;-68
2023/04/19 10:49:04;;;;;;;;;;;;;;;19;45.78711;102918.3;;;;-69
2023/04/19 10:54:06;;;;;;;;;;;;;;;19.01;45.87793;102926.8;;;;-70
2023/04/19 10:59:27;;;;;;;;;;;;;;;19.11;43.62109;102926.7;;;;-69
2023/04/19 11:04:03;;;;;;;;;;;;;;;19.21;44.38281;102913.2;;;;-74
2023/04/19 11:09:04;;;;;;;;;;;;;;;19.3;44.6543;102900.5;;;;-70
2023/04/19 11:09:52;;;;;;;4.3;1.9;;;;;;;;;;;;;-70
2023/04/19 11:14:03;;;;;;;;;;;;;;;19.43;43.7998;102894.5;;;;-70
2023/04/19 11:19:06;;;;;;;;;;;;;;;19.55;45;102881.8;;;;-70
2023/04/19 11:24:14;;;;;;;;;;;;;;;19.73;42.9502;102886.5;;;;-69
2023/04/19 11:29:05;;;;;;;;;;;;;;;19.71;43.26758;102879.8;;;;-70
2023/04/19 11:34:05;;;;;;;;;;;;;;;19.86;42.78027;102874.1;;;;-69
2023/04/19 11:39:03;;;;;;;;;;;;;;;20.02;41.74414;102869.6;;;;-70
2023/04/19 11:39:54;;;;;;;4.8;2.5;;;;;;;;;;;;;-70
2023/04/19 11:44:03;;;;;;;;;;;;;;;19.97;41.97852;102856;;;;-70
2023/04/19 11:49:03;;;;;;;;;;;;;;;20.22;42.36816;102861.8;;;;-69
2023/04/19 11:54:03;;;;;;;;;;;;;;;20.27;42.80762;102853.2;;;;-69
2023/04/19 11:59:06;;;;;;;;;;;;;;;20.43;42.04492;102856.7;;;;-69
2023/04/19 12:04:03;;;;;;;;;;;;;;;20.37;41.93652;102865.6;;;;-70
2023/04/19 12:09:06;;;;;;;;;;;;;;;20.35;42.97559;102848.4;;;;-71
2023/04/19 12:09:57;;;;;;;3.9;2.2;;;;;;;;;;;;;-69
2023/04/19 12:14:14;;;;;;;;;;;;;;;20.46;43.21484;102838.7;;;;-69
2023/04/19 12:19:16;;;;;;;;;;;;;;;20.54;41.86133;102830.2;;;;-70
2023/04/19 12:24:04;;;;;;;;;;;;;;;20.47;42.54102;102827.9;;;;-69
2023/04/19 12:29:04;;;;;;;;;;;;;;;20.51;42.48633;102827.6;;;;-71
2023/04/19 12:34:08;;;;;;;;;;;;;;;20.55;42.47949;102819.9;;;;-69
2023/04/19 12:39:06;;;;;;;;;;;;;;;20.63;43.18555;102826.4;;;;-70
2023/04/19 12:40:00;;;;;;;4;1.9;;;;;;;;;;;;;-70
2023/04/19 12:44:04;;;;;;;;;;;;;;;20.7;43.41016;102819.7;;;;-69
2023/04/19 12:49:03;;;;;;;;;;;;;;;20.66;42.85742;102819.6;;;;-69
2023/04/19 12:54:03;;;;;;;;;;;;;;;20.73;42.67969;102810.1;;;;-71
2023/04/19 12:59:03;;;;;;;;;;;;;;;20.98;43.17383;102799.6;;;;-70
2023/04/19 13:04:03;;;;;;;;;;;;;;;21.14;44.09473;102796.6;;;;-70
2023/04/19 13:09:04;;;;;;;;;;;;;;;21.18;43.19336;102782.9;;;;-70
2023/04/19 13:10:03;;;;;;;4;1.6;;;;;;;;;;;;;-68
2023/04/19 13:14:03;;;;;;;;;;;;;;;21.21;43.15039;102772.7;;;;-71
2023/04/19 13:19:04;;;;;;;;;;;;;;;21.26;42.60449;102767.3;;;;-70
2023/04/19 13:24:04;;;;;;;;;;;;;;;21.27;42.67383;102759.8;;;;-71
2023/04/19 13:29:04;;;;;;;;;;;;;;;21.29;42.30957;102755.8;;;;-69
2023/04/19 13:34:03;;;;;;;;;;;;;;;21.41;42.37891;102751.3;;;;-67
2023/04/19 13:39:03;;;;;;;;;;;;;;;21.35;42.60254;102738.8;;;;-69
2023/04/19 13:40:09;;;;;;;2.5;1.2;;;;;;;;;;;;;-68
2023/04/19 13:44:04;;;;;;;;;;;;;;;21.48;41.91406;102735.1;;;;-70
2023/04/19 13:49:03;;;;;;;;;;;;;;;21.5;41.33105;102728.4;;;;-70
2023/04/19 13:54:03;;;;;;;;;;;;;;;21.53;42.76953;102722.8;;;;-70
2023/04/19 13:59:03;;;;;;;;;;;;;;;21.62;41.58398;102718.4;;;;-69
2023/04/19 14:04:03;;;;;;;;;;;;;;;21.61;40.03223;102717.4;;;;-70
2023/04/19 14:09:03;;;;;;;;;;;;;;;21.33;42.7373;102713.6;;;;-69
2023/04/19 14:10:12;;;;;;;2.6;1;;;;;;;;;;;;;-69
2023/04/19 14:14:03;;;;;;;;;;;;;;;21.56;42.4502;102714.7;;;;-70
2023/04/19 14:19:03;;;;;;;;;;;;;;;21.52;40.94336;102688.3;;;;-69
2023/04/19 14:24:03;;;;;;;;;;;;;;;21.45;42.25684;102709.7;;;;-71
2023/04/19 14:29:03;;;;;;;;;;;;;;;21.52;41.5625;102686.2;;;;-69
2023/04/19 14:34:08;;;;;;;;;;;;;;;21.44;42.04883;102681.2;;;;-68
2023/04/19 14:39:04;;;;;;;;;;;;;;;21.5;41.51465;102663.4;;;;-70
2023/04/19 14:40:16;;;;;;;3.1;1.3;;;;;;;;;;;;;-70
2023/04/19 14:44:03;;;;;;;;;;;;;;;21.4;41.74707;102662.2;;;;-70
2023/04/19 14:49:04;;;;;;;;;;;;;;;21.37;41.97266;102656.7;;;;-69
2023/04/19 14:54:06;;;;;;;;;;;;;;;21.4;41.18359;102649.6;;;;-69
2023/04/19 14:59:03;;;;;;;;;;;;;;;21.24;41.27246;102638.7;;;;-70
2023/04/19 15:04:03;;;;;;;;;;;;;;;21.19;41.68164;102641.8;;;;-70
2023/04/19 15:09:04;;;;;;;;;;;;;;;21.21;42.83008;102641.2;;;;-70
2023/04/19 15:10:18;;;;;;;2.9;1.5;;;;;;;;;;;;;-71
2023/04/19 15:14:03;;;;;;;;;;;;;;;21.18;42.08105;102626.8;;;;-70
2023/04/19 15:19:06;;;;;;;;;;;;;;;21.09;41.62598;102631.2;;;;-70
2023/04/19 15:24:06;;;;;;;;;;;;;;;20.92;41.75879;102631.8;;;;-71
2023/04/19 15:29:03;;;;;;;;;;;;;;;20.78;42.67383;102621.8;;;;-69
2023/04/19 15:34:07;;;;;;;;;;;;;;;20.73;43.37891;102614.6;;;;-70
2023/04/19 15:39:03;;;;;;;;;;;;;;;20.62;43.68848;102616.7;;;;-72
2023/04/19 15:40:23;;;;;;;4.2;2.3;;;;;;;;;;;;;-69
2023/04/19 15:44:03;;;;;;;;;;;;;;;20.5;43.66504;102616.6;;;;-69
2023/04/19 15:49:04;;;;;;;;;;;;;;;20.38;44.48828;102605.7;;;;-70
2023/04/19 15:54:04;;;;;;;;;;;;;;;20.32;43.40723;102613.1;;;;-70
2023/04/19 15:59:17;;;;;;;;;;;;;;;;;;;;;
2023/04/19 16:04:03;;;;;;;;;;;;;;;19.93;44.1123;102615.4;;;;-71
2023/04/19 16:09:03;;;;;;;;;;;;;;;19.82;44.45508;102614.8;;;;-70
2023/04/19 16:10:35;;;;;;;5;2.4;;;;;;;;;;;;;-71
2023/04/19 16:14:03;;;;;;;;;;;;;;;19.62;44.04785;102609.9;;;;-70
2023/04/19 16:19:03;;;;;;;;;;;;;;;19.4;44.52734;102618.7;;;;-69
2023/04/19 16:24:03;;;;;;;;;;;;;;;19.22;44.9082;102608.8;;;;-70
2023/04/19 16:29:03;;;;;;;;;;;;;;;19.02;44.25;102609.2;;;;-70
2023/04/19 16:34:03;;;;;;;;;;;;;;;18.81;44.30859;102615.9;;;;-71
2023/04/19 16:39:03;;;;;;;;;;;;;;;18.64;45.02148;102603.7;;;;-70
2023/04/19 16:40:28;;;;;;;6.9;2.7;;;;;;;;;;;;;-68
2023/04/19 16:44:03;;;;;;;;;;;;;;;18.56;44.71582;102609.7;;;;-69
2023/04/19 16:49:03;;;;;;;;;;;;;;;18.36;44.98145;102602.5;;;;-70
2023/04/19 16:54:03;;;;;;;;;;;;;;;18.15;45.59668;102603.6;;;;-69
2023/04/19 16:59:03;;;;;;;;;;;;;;;18;45.93359;102598.5;;;;-68
2023/04/19 17:04:03;;;;;;;;;;;;;;;17.89;46.03613;102603.3;;;;-69
2023/04/19 17:09:03;;;;;;;;;;;;;;;17.67;46.41211;102603.8;;;;-70
2023/04/19 17:10:31;;;;;;;7.8;2.5;;;;;;;;;;;;;-70
2023/04/19 17:14:03;;;;;;;;;;;;;;;17.47;46.14063;102598.7;;;;-74
2023/04/19 17:19:03;;;;;;;;;;;;;;;17.24;46.09375;102594.9;;;;-70
2023/04/19 17:24:03;;;;;;;;;;;;;;;17.01;46.2959;102586.4;;;;-70
2023/04/19 17:29:03;;;;;;;;;;;;;;;16.81;47.29492;102590;;;;-70
2023/04/19 17:34:06;;;;;;;;;;;;;;;16.62;47.32031;102599.9;;;;-70
2023/04/19 17:39:04;;;;;;;;;;;;;;;16.4;47.60254;102593.1;;;;-69
2023/04/19 17:40:34;;;;;;;5.5;2.7;;;;;;;;;;;;;-69
2023/04/19 17:44:03;;;;;;;;;;;;;;;16.21;48.11426;102592.4;;;;-68
2023/04/19 17:49:03;;;;;;;;;;;;;;;15.96;47.79297;102594.7;;;;-69
2023/04/19 17:54:03;;;;;;;;;;;;;;;15.72;47.7998;102593.3;;;;-70
2023/04/19 17:59:03;;;;;;;;;;;;;;;15.37;48.39453;102593.8;;;;-70
2023/04/19 18:04:03;;;;;;;;;;;;;;;15.14;48.47168;102590.1;;;;-69
2023/04/19 18:09:06;;;;;;;;;;;;;;;14.94;48.92383;102587.5;;;;-70
2023/04/19 18:10:37;;;;;;;4.9;2.2;;;;;;;;;;;;;-69
2023/04/19 18:14:03;;;;;;;;;;;;;;;14.67;48.97168;102579.9;;;;-69
2023/04/19 18:19:03;;;;;;;;;;;;;;;14.42;48.83203;102569.2;;;;-67
2023/04/19 18:24:03;;;;;;;;;;;;;;;14.19;48.91895;102577;;;;-70
2023/04/19 18:29:03;;;;;;;;;;;;;;;13.98;48.44434;102578.7;;;;-68
2023/04/19 18:34:03;;;;;;;;;;;;;;;13.79;50.46094;102592.3;;;;-69
2023/04/19 18:39:04;;;;;;;;;;;;;;;13.55;49.40918;102584;;;;-70
2023/04/19 18:40:39;;;;;;;4;2.1;;;;;;;;;;;;;-69
2023/04/19 18:44:03;;;;;;;;;;;;;;;13.37;49.50195;102590;;;;-70
2023/04/19 18:49:03;;;;;;;;;;;;;;;13.13;49.69922;102596.6;;;;-69
2023/04/19 18:54:03;;;;;;;;;;;;;;;12.96;50.0498;102612.3;;;;-69
2023/04/19 18:59:03;;;;;;;;;;;;;;;12.79;50.88379;102617.6;;;;-69
2023/04/19 19:04:05;;;;;;;;;;;;;;;12.59;50.72559;102612.7;;;;-70
2023/04/19 19:09:03;;;;;;;;;;;;;;;12.42;51.16602;102633.8;;;;-70
2023/04/19 19:10:41;;;;;;;7;2.1;;;;;;;;;;;;;-69
2023/04/19 19:14:03;;;;;;;;;;;;;;;12.27;51.80957;102625.3;;;;-70
2023/04/19 19:19:03;;;;;;;;;;;;;;;12.08;51.75293;102632.7;;;;-69
2023/04/19 19:24:04;;;;;;;;;;;;;;;11.9;52.0791;102633.3;;;;-69
2023/04/19 19:29:03;;;;;;;;;;;;;;;11.76;52.24219;102640.8;;;;-69
2023/04/19 19:34:03;;;;;;;;;;;;;;;11.63;52.85156;102641.1;;;;-68
2023/04/19 19:39:03;;;;;;;;;;;;;;;11.51;52.80273;102631;;;;-68
2023/04/19 19:40:43;;;;;;;4.1;2;;;;;;;;;;;;;-69
2023/04/19 19:44:04;;;;;;;;;;;;;;;11.37;53.08887;102635.5;;;;-70
2023/04/19 19:49:03;;;;;;;;;;;;;;;11.26;53.84668;102635.2;;;;-68
2023/04/19 19:54:03;;;;;;;;;;;;;;;11.14;53.65332;102643.3;;;;-68
2023/04/19 19:59:03;;;;;;;;;;;;;;;11.02;53.88477;102642.4;;;;-69
2023/04/19 20:04:03;;;;;;;;;;;;;;;10.92;54.10645;102644.7;;;;-69
2023/04/19 20:09:03;;;;;;;;;;;;;;;10.82;54.2041;102646.9;;;;-69
2023/04/19 20:10:45;;;;;;;4.9;2.2;;;;;;;;;;;;;-70
2023/04/19 20:14:03;;;;;;;;;;;;;;;10.75;54.45313;102657.3;;;;-68
2023/04/19 20:19:08;;;;;;;;;;;;;;;10.66;54.79883;102667.8;;;;-68
2023/04/19 20:24:05;;;;;;;;;;;;;;;10.58;54.9668;102661.8;;;;-69
2023/04/19 20:29:03;;;;;;;;;;;;;;;10.45;55.21777;102669.2;;;;-70
2023/04/19 20:34:03;;;;;;;;;;;;;;;10.36;55.24023;102674.6;;;;-71
2023/04/19 20:39:08;;;;;;;;;;;;;;;10.3;55.17578;102678;;;;-70
2023/04/19 20:40:46;;;;;;;4.5;2.4;;;;;;;;;;;;;-69
2023/04/19 20:44:03;;;;;;;;;;;;;;;10.2;55.4082;102675.6;;;;-70
2023/04/19 20:49:03;;;;;;;;;;;;;;;10.15;55.72461;102681.8;;;;-69
2023/04/19 20:54:03;;;;;;;;;;;;;;;10.09;55.68555;102682.7;;;;-69
2023/04/19 20:59:03;;;;;;;;;;;;;;;10.01;55.57324;102682.4;;;;-69
2023/04/19 21:04:03;;;;;;;;;;;;;;;10;55.50586;102682.4;;;;-70
2023/04/19 21:09:03;;;;;;;;;;;;;;;9.86;55.19922;102683.5;;;;-69
2023/04/19 21:10:48;;;;;;;5.4;2.3;;;;;;;;;;;;;-70
2023/04/19 21:14:03;;;;;;;;;;;;;;;9.8;55.20215;102685.1;;;;-70
2023/04/19 21:19:03;;;;;;;;;;;;;;;9.73;54.34668;102686.5;;;;-69
2023/04/19 21:24:03;;;;;;;;;;;;;;;9.69;54.4873;102684.1;;;;-69
2023/04/19 21:29:03;;;;;;;;;;;;;;;9.61;53.90918;102682.9;;;;-69
2023/04/19 21:34:03;;;;;;;;;;;;;;;9.54;54.2793;102678.5;;;;-71
2023/04/19 21:39:04;;;;;;;;;;;;;;;9.52;53.86621;102680.7;;;;-71
2023/04/19 21:40:50;;;;;;;4.6;2.1;;;;;;;;;;;;;-69
2023/04/19 21:44:03;;;;;;;;;;;;;;;9.4;53.62793;102686.5;;;;-69
2023/04/19 21:49:03;;;;;;;;;;;;;;;9.34;53.85449;102681.2;;;;-73
2023/04/19 21:54:06;;;;;;;;;;;;;;;9.31;53.60645;102682.4;;;;-71
2023/04/19 21:59:03;;;;;;;;;;;;;;;9.27;53.55664;102683.6;;;;-69
2023/04/19 22:04:03;;;;;;;;;;;;;;;9.19;53.66895;102683.4;;;;-69
2023/04/19 22:09:05;;;;;;;;;;;;;;;9.14;53.43945;102681;;;;-69
2023/04/19 22:10:50;;;;;;;3.9;2;;;;;;;;;;;;;-70
2023/04/19 22:14:03;;;;;;;;;;;;;;;9.1;53.21387;102675.4;;;;-69
2023/04/19 22:23:08;;;;;;;;;;;;;;;9;53.33398;102672.9;;;;-69
2023/04/19 22:28:08;;;;;;;;;;;;;;;8.98;53.19922;102676.9;;;;-69
2023/04/19 22:33:08;;;;;;;;;;;;;;;8.94;53.22754;102677.4;;;;-68
2023/04/19 22:38:08;;;;;;;;;;;;;;;8.9;53.13281;102667.8;;;;-69
2023/04/19 22:43:11;;;;;;;;;;;;;;;8.86;53.2832;102670.2;;;;-69
2023/04/19 22:48:11;;;;;;;;;;;;;;;8.78;52.69629;102664.8;;;;-70
2023/04/19 22:53:11;;;;;;;;;;;;;;;8.77;53.3623;102671;;;;-70
2023/04/19 22:58:09;;;;;;;;;;;;;;;8.75;52.99219;102666.7;;;;-70
2023/04/19 23:03:08;;;;;;;;;;;;;;;8.7;53.48535;102664;;;;-69
2023/04/19 23:08:08;;;;;;;;;;;;;;;8.65;53.30371;102662;;;;-69
2023/04/19 23:10:55;;;;;;;5.6;1.7;;;;;;;;;;;;;-68
2023/04/19 23:13:14;;;;;;;;;;;;;;;8.63;53.60059;102654.2;;;;-69
2023/04/19 23:18:10;;;;;;;;;;;;;;;8.58;53.79297;102657;;;;-70
2023/04/19 23:23:08;;;;;;;;;;;;;;;8.5;53.96191;102659.1;;;;-69
2023/04/19 23:28:08;;;;;;;;;;;;;;;8.44;54.17578;102648;;;;-69
2023/04/19 23:33:08;;;;;;;;;;;;;;;8.39;54.41406;102648.5;;;;-69
2023/04/19 23:38:08;;;;;;;;;;;;;;;8.35;54.5957;102643.7;;;;-69
2023/04/19 23:40:53;;;;;;;3.8;1.7;;;;;;;;;;;;;-70
2023/04/19 23:43:08;;;;;;;;;;;;;;;8.29;54.81055;102647;;;;-70
2023/04/19 23:48:08;;;;;;;;;;;;;;;8.23;55.05859;102641.9;;;;-69
2023/04/19 23:53:08;;;;;;;;;;;;;;;8.16;55.09375;102631.9;;;;-70
2023/04/19 23:58:11;;;;;;;;;;;;;;;8.11;55.1543;102628;;;;-70
